Latest Weather Observations for Cloncurry

IDQ60801

Issued at 11:42 am EST Thursday 1 October 2020 (issued every 10 minutes, with the page automatically refreshed every 10 minutes)

About weather observations | Map of weather stations | Latest weather observations for QLD | Other Formats
Station Details ID: 029141 Name: CLONCURRY AIRPORT Lat: -20.67 Lon: 140.50 Height: 186.0 m
Data from the previous 72 hours. | See also: Recent months at Cloncurry
Date/Time
EST
Temp
°C
App
Temp
°C
Dew
Point
°C
Rel
Hum
%
Delta-T
°C
Wind Press
QNH
hPa
Press
MSL
hPa
Rain since
9am
mm
Dir  Spd
km/h
Gust
km/h
Spd
kts
Gust
kts
01/11:30am 33.2 26.8 3.1 15 15.6 SE 26 37 14 20 1016.6 1015.4 0.0
01/11:00am 31.9 25.3 2.1 15 15.0 SE 26 37 14 20 1016.8 1015.6 0.0
01/10:30am 31.7 25.8 1.9 15 15.0 SE 22 44 12 24 1016.9 1015.7 0.0
01/10:18am 31.4 24.5 2.6 16 14.6 ESE 28 46 15 25 1017.0 1015.8 0.0
01/10:00am 31.1 24.7 3.2 17 14.3 SSE 26 33 14 18 1017.1 1015.9 0.0
01/09:30am 30.0 23.1 2.3 17 13.9 SSE 28 39 15 21 1017.0 1016.1 0.0
01/09:00am 29.8 24.2 3.7 19 13.4 SSE 22 32 12 17 1016.9 1016.0 -
01/08:30am 27.3 22.1 3.7 22 11.9 SSE 20 28 11 15 1016.8 1015.9 -
01/08:00am 26.3 21.1 3.5 23 11.4 S 20 26 11 14 1016.3 1015.4 -
01/07:30am 24.8 20.6 4.0 26 10.4 S 15 19 8 10 1016.0 1015.1 -
01/07:00am 23.7 19.9 4.1 28 9.7 S 13 17 7 9 1015.6 1014.7 -
01/06:30am 22.7 18.9 3.8 29 9.3 S 13 19 7 10 1015.2 1014.3 -
01/06:00am 23.8 19.3 4.2 28 9.7 S 17 20 9 11 1014.7 1013.8 -
01/05:30am 24.0 19.8 3.9 27 10.0 S 15 19 8 10 1014.3 1013.3 -
01/05:00am 24.3 20.5 4.1 27 10.1 S 13 19 7 10 1013.8 1012.8 -
01/04:30am 23.9 20.5 3.8 27 9.9 SSW 11 13 6 7 1013.4 1012.5 -
01/04:00am 24.4 21.6 3.1 25 10.4 SSW 7 9 4 5 1013.1 1012.2 -
01/03:30am 25.7 21.4 3.0 23 11.2 SSW 15 20 8 11 1013.0 1012.1 -
01/03:00am 26.1 21.3 2.7 22 11.5 SSW 17 24 9 13 1012.8 1011.9 0.0
01/02:30am 26.6 20.8 2.5 21 11.8 SSW 22 28 12 15 1012.6 1011.7 -
01/02:00am 26.2 20.6 1.5 20 11.9 SSW 20 24 11 13 1012.7 1011.8 -
01/01:30am 26.9 21.5 1.3 19 12.3 SSW 19 22 10 12 1012.6 1011.7 -
01/01:00am 27.6 22.2 1.2 18 12.8 SSW 19 24 10 13 1012.7 1011.8 -
01/12:30am 28.1 23.1 1.6 18 13.0 S 17 20 9 11 1012.8 1011.9 -
01/12:00am 27.5 22.6 1.8 19 12.6 SSW 17 20 9 11 1012.8 1011.9 -
 
Date/Time
EST
Temp
°C
App
Temp
°C
Dew
Point
°C
Rel
Hum
%
Delta-T
°C
Wind Press
QNH
hPa
Press
MSL
hPa
Rain since
9am
mm
Dir  Spd
km/h
Gust
km/h
Spd
kts
Gust
kts
30/11:30pm 26.5 21.8 1.0 19 12.2 SSW 15 17 8 9 1012.8 1011.9 -
30/11:00pm 27.1 22.9 1.5 19 12.4 SSW 13 15 7 8 1012.8 1011.9 -
30/10:30pm 27.4 23.5 1.0 18 12.7 SSW 11 13 6 7 1012.9 1012.0 -
30/10:00pm 28.1 23.6 -0.1 16 13.4 SSW 13 13 7 7 1012.8 1011.9 -
30/09:30pm 29.1 24.3 -0.1 15 13.9 SSW 15 17 8 9 1012.4 1011.5 -
30/09:00pm 28.8 24.3 -0.4 15 13.9 S 13 13 7 7 1012.1 1011.2 0.0
30/08:30pm 29.1 24.9 -1.1 14 14.2 S 11 13 6 7 1011.8 1010.9 -
30/08:00pm 30.0 26.1 -1.4 13 14.8 S 9 13 5 7 1011.2 1010.3 -
30/07:30pm 32.6 29.1 -1.7 11 16.3 S 7 9 4 5 1010.7 1009.8 -
30/07:00pm 33.4 28.8 -1.0 11 16.7 S 13 15 7 8 1010.3 1009.4 -
30/06:30pm 35.0 29.6 -1.1 10 17.7 SSW 17 22 9 12 1009.7 1008.8 -
30/06:00pm 36.1 31.0 -1.7 9 18.5 S 15 24 8 13 1009.4 1008.4 -
30/05:30pm 36.5 32.4 0.0 10 18.3 SSW 11 19 6 10 1009.3 1008.3 -
30/05:00pm 37.2 31.7 1.8 11 18.4 SW 20 32 11 17 1009.1 1008.1 -
30/04:30pm 37.2 32.3 1.8 11 18.4 SW 17 33 9 18 1009.2 1008.2 -
30/04:00pm 36.9 32.3 1.6 11 18.3 N 15 22 8 12 1009.1 1008.1 -
30/03:30pm 36.8 33.8 3.9 13 17.6 NW 9 20 5 11 1009.4 1008.4 -
30/03:00pm 36.3 33.2 3.5 13 17.4 NW 9 13 5 7 1009.7 1008.8 -
30/02:30pm 36.1 33.3 3.3 13 17.3 N 7 13 4 7 1010.2 1009.3 -
30/02:00pm 36.7 33.3 3.8 13 17.6 NNE 11 20 6 11 1010.6 1009.7 -
30/01:30pm 35.0 31.7 4.5 15 16.3 ESE 11 20 6 11 1011.3 1010.4 -
30/01:00pm 34.7 31.0 6.1 17 15.7 NNW 15 22 8 12 1011.9 1011.0 -
30/12:30pm 33.8 29.5 5.4 17 15.3 NNW 17 28 9 15 1012.5 1011.6 -
30/11:00am 32.7 28.3 8.9 23 13.5 NNW 22 33 12 18 1014.0 1013.0 0.0
30/10:30am 32.3 26.8 9.2 24 13.1 NNW 28 35 15 19 1014.1 1013.1 0.0
30/10:00am 30.5 24.4 8.3 25 12.3 N 30 39 16 21 1014.2 1013.2 0.0
30/09:30am 30.4 24.6 9.3 27 11.9 N 30 41 16 22 1014.3 1013.3 0.0
30/09:00am 29.2 24.4 11.7 34 10.2 N 28 33 15 18 1014.5 1013.6 0.0
30/08:49am 28.4 23.6 11.5 35 9.8 N 28 39 15 21 1014.4 1013.5 0.0
30/08:30am 28.3 24.2 4.6 22 12.2 NNW 15 20 8 11 1014.4 1013.5 0.0
30/08:00am 26.1 22.8 0.0 18 12.2 N 7 13 4 7 1014.1 1013.1 0.0
30/07:30am 24.3 19.1 -0.1 20 11.2 E 17 32 9 17 1014.0 1013.0 0.0
30/07:29am 24.2 19.3 -0.2 20 11.2 E 15 32 8 17 1013.9 1012.9 0.0
30/07:00am 19.2 17.8 3.4 35 7.5 CALM 0 0 0 0 1012.4 1011.5 0.0
30/06:30am 19.6 18.2 3.3 34 7.7 CALM 0 0 0 0 1012.1 1011.2 0.0
30/06:00am 20.1 18.8 4.2 35 7.7 CALM 0 0 0 0 1011.9 1011.0 0.0
30/05:30am 20.9 18.5 5.3 36 7.8 NNW 7 9 4 5 1011.0 1010.1 0.0
30/05:00am 20.4 17.9 3.6 33 8.1 WSW 6 13 3 7 1010.8 1009.9 0.0
30/04:30am 20.9 19.7 4.5 34 8.0 CALM 0 0 0 0 1010.7 1009.8 0.0
30/04:00am 20.7 18.3 4.3 34 8.0 SW 6 9 3 5 1010.9 1010.0 0.0
30/03:30am 20.6 19.6 5.4 37 7.6 CALM 0 0 0 0 1010.9 1010.0 0.0
30/03:00am 21.7 19.9 5.2 34 8.3 SW 4 7 2 4 1011.0 1010.1 0.0
30/02:30am 21.2 17.6 5.1 35 8.0 SW 13 19 7 10 1011.6 1010.7 0.0
30/02:00am 23.8 22.2 7.8 36 8.5 NNW 6 7 3 4 1011.4 1010.5 0.0
30/01:30am 24.7 22.2 8.2 35 8.9 NNW 11 15 6 8 1011.6 1010.7 0.0
30/01:00am 25.1 21.7 7.7 33 9.3 NNW 15 17 8 9 1011.9 1011.0 0.0
30/12:30am 24.9 20.3 3.5 25 10.6 N 17 20 9 11 1012.2 1011.3 0.0
30/12:00am 21.5 19.3 1.2 26 9.4 NNW 2 9 1 5 1012.2 1011.3 0.0
 
Date/Time
EST
Temp
°C
App
Temp
°C
Dew
Point
°C
Rel
Hum
%
Delta-T
°C
Wind Press
QNH
hPa
Press
MSL
hPa
Rain since
9am
mm
Dir  Spd
km/h
Gust
km/h
Spd
kts
Gust
kts
29/11:30pm 22.6 20.9 2.1 26 9.7 CALM 0 0 0 0 1012.2 1011.3 0.0
29/11:00pm 23.4 21.2 1.1 23 10.4 WSW 2 7 1 4 1012.2 1011.3 0.0
29/10:30pm 25.0 21.8 3.0 24 10.8 WSW 9 9 5 5 1012.3 1011.4 0.0
29/10:00pm 24.9 22.7 1.1 21 11.3 NW 2 7 1 4 1012.1 1011.2 0.0
29/09:30pm 26.8 23.8 2.0 20 12.1 NW 7 9 4 5 1011.9 1011.0 0.0
29/09:00pm 27.0 23.5 1.4 19 12.4 NW 9 11 5 6 1011.8 1010.9 0.0
29/08:30pm 28.3 26.5 0.9 17 13.2 CALM 0 0 0 0 1011.5 1010.6 0.0
29/08:00pm 29.4 26.7 0.1 15 14.1 NW 4 6 2 3 1011.4 1010.5 0.0
29/07:30pm 30.9 27.6 0.3 14 14.9 NW 7 9 4 5 1011.1 1010.2 0.0
29/07:00pm 32.4 28.8 0.5 13 15.8 NW 9 9 5 5 1010.5 1009.6 0.0
29/06:30pm 33.5 30.0 1.3 13 16.2 NW 9 13 5 7 1010.3 1009.4 0.0
29/06:00pm 35.2 31.4 1.5 12 17.2 NW 11 17 6 9 1010.2 1009.3 0.0
29/05:30pm 35.6 31.8 1.8 12 17.4 NNW 11 20 6 11 1009.9 1009.0 0.0
29/05:00pm 35.7 31.9 1.9 12 17.4 WNW 11 20 6 11 1009.8 1008.9 0.0
29/04:30pm 36.0 32.6 2.1 12 17.6 NNW 9 17 5 9 1009.6 1008.6 0.0
29/04:00pm 35.3 30.3 1.6 12 17.3 N 17 22 9 12 1009.7 1008.8 0.0
29/03:30pm 35.5 30.6 1.8 12 17.3 WNW 17 26 9 14 1010.0 1009.1 0.0
29/03:00pm 35.0 30.9 2.5 13 16.9 NW 13 26 7 14 1010.4 1009.5 0.0
29/02:30pm 35.3 31.7 2.7 13 17.0 NNW 11 24 6 13 1010.9 1010.0 0.0
29/02:00pm 35.0 29.8 2.5 13 16.9 N 19 28 10 15 1011.5 1010.6 0.0
29/01:30pm 33.9 29.1 2.7 14 16.1 NE 17 30 9 16 1012.1 1011.2 0.0
29/01:00pm 34.7 30.0 3.3 14 16.5 NNE 17 24 9 13 1012.6 1011.7 0.0
29/12:30pm 33.2 29.0 4.0 16 15.3 N 15 24 8 13 1013.6 1012.6 0.0
29/12:00pm 33.1 28.9 5.6 18 14.8 NNE 17 24 9 13 1014.5 1013.6 0.0
29/11:30am 31.3 26.4 4.9 19 13.9 N 20 30 11 16 1015.1 1014.2 0.0
29/11:00am 31.3 26.7 5.7 20 13.7 NNE 19 26 10 14 1015.6 1014.7 0.0
29/10:30am 29.4 24.5 4.1 20 13.0 NNE 19 28 10 15 1016.0 1015.1 0.0
29/10:00am 28.6 24.0 3.5 20 12.7 NNE 17 24 9 13 1016.3 1015.4 0.0
29/09:30am 27.6 23.2 -2.3 14 13.6 ENE 11 17 6 9 1016.4 1015.5 0.0
29/09:00am 26.3 20.8 -2.4 15 12.9 E 17 22 9 12 1016.4 1015.5 0.0
29/08:30am 25.3 19.8 -2.3 16 12.3 E 17 22 9 12 1016.3 1015.4 0.0
29/08:00am 24.5 17.8 -3.8 15 12.2 ESE 22 35 12 19 1016.0 1015.1 0.0
29/07:30am 23.6 17.3 -5.4 14 12.0 ESE 19 26 10 14 1015.7 1014.8 0.0
29/07:00am 22.6 16.6 -6.2 14 11.6 SE 17 20 9 11 1015.3 1014.4 0.0
29/06:30am 22.0 16.1 -5.8 15 11.3 ESE 17 26 9 14 1015.1 1014.2 0.0
29/06:00am 21.9 16.3 -6.8 14 11.4 SSE 15 19 8 10 1014.6 1013.7 0.0
29/05:30am 21.9 16.3 -6.8 14 11.4 SSE 15 17 8 9 1014.5 1013.6 0.0
29/05:00am 22.5 16.4 -7.3 13 11.8 SSE 17 24 9 13 1014.1 1013.1 0.0
29/04:30am 21.8 16.2 -6.8 14 11.3 SSE 15 20 8 11 1014.1 1013.1 0.0
29/04:00am 21.7 17.1 -7.9 13 11.5 SSE 9 15 5 8 1014.0 1013.0 0.0
29/03:30am 21.1 15.7 -8.4 13 11.2 S 13 15 7 8 1013.8 1012.8 0.0
29/03:00am 21.3 15.8 -9.2 12 11.5 SSE 13 17 7 9 1014.0 1013.0 0.0
29/02:30am 20.3 15.2 -9.0 13 10.9 S 11 15 6 8 1014.3 1013.3 0.0
29/02:00am 19.5 14.5 -8.7 14 10.5 SSW 11 13 6 7 1014.5 1013.6 0.0
29/01:30am 20.3 15.2 -9.0 13 10.9 SSW 11 13 6 7 1014.8 1013.9 0.0
29/01:00am 21.2 16.6 -8.3 13 11.3 SSW 9 11 5 6 1015.0 1014.1 0.0
29/12:30am 20.7 15.3 -8.7 13 11.1 S 13 15 7 8 1015.3 1014.4 0.0
29/12:00am 21.2 16.2 -8.3 13 11.3 S 11 13 6 7 1015.5 1014.6 0.0
 
Date/Time
EST
Temp
°C
App
Temp
°C
Dew
Point
°C
Rel
Hum
%
Delta-T
°C
Wind Press
QNH
hPa
Press
MSL
hPa
Rain since
9am
mm
Dir  Spd
km/h
Gust
km/h
Spd
kts
Gust
kts
28/11:30pm 22.1 17.2 -7.6 13 11.6 S 11 13 6 7 1015.6 1014.7 0.0
28/11:00pm 22.4 17.4 -8.4 12 11.9 S 11 13 6 7 1015.5 1014.6 0.0
28/10:30pm 23.0 18.0 -7.9 12 12.1 S 11 13 6 7 1015.5 1014.6 0.0
28/10:00pm 24.9 20.2 -8.8 10 13.2 SSE 9 13 5 7 1015.6 1014.7 0.0
28/09:30pm 27.4 21.6 -8.2 9 14.5 SSE 15 19 8 10 1015.4 1014.5 0.0
28/09:00pm 25.1 19.8 -7.4 11 13.1 SE 13 15 7 8 1015.2 1014.3 0.0
28/08:30pm 26.1 21.1 -7.9 10 13.8 SE 11 13 6 7 1014.8 1013.9 0.0
28/08:00pm 26.6 21.7 -7.5 10 14.0 ESE 11 13 6 7 1014.7 1013.8 0.0
28/07:30pm 27.4 22.4 -8.2 9 14.5 ESE 11 11 6 6 1014.7 1013.8 0.0
28/07:00pm 29.0 24.0 -8.5 8 15.4 ESE 11 13 6 7 1014.4 1013.5 0.0
28/06:30pm 31.1 25.3 -8.7 7 16.6 ESE 15 20 8 11 1013.9 1012.9 0.0
28/06:00pm 32.6 25.8 -9.6 6 17.6 SE 20 24 11 13 1013.4 1012.5 0.0
28/05:30pm 33.4 26.6 -9.0 6 18.0 ESE 20 28 11 15 1013.2 1012.3 0.0
28/05:00pm 33.7 27.5 -8.8 6 18.2 SE 17 24 9 13 1013.2 1012.3 0.0
28/04:30pm 34.0 27.3 -8.6 6 18.3 SSE 20 30 11 16 1013.2 1012.3 0.0
28/04:00pm 33.7 27.5 -8.8 6 18.2 SSE 17 26 9 14 1013.2 1012.3 0.0
28/03:30pm 33.3 27.5 -9.1 6 18.0 S 15 24 8 13 1013.6 1012.6 0.0
28/03:00pm 33.2 27.1 -7.2 7 17.6 SSE 17 26 9 14 1014.0 1013.0 0.0
28/02:30pm 33.3 28.6 -5.4 8 17.4 SSE 11 20 6 11 1014.5 1013.6 0.0
28/02:00pm 32.8 27.6 -5.7 8 17.2 SE 13 26 7 14 1014.9 1014.0 0.0
28/01:30pm 32.1 27.1 -4.7 9 16.6 SE 13 30 7 16 1015.5 1014.6 0.0
28/01:00pm 31.9 25.5 -4.9 9 16.5 SSE 20 28 11 15 1016.3 1015.4 0.0
28/12:30pm 31.2 26.2 -4.0 10 16.0 ESE 13 24 7 13 1016.8 1015.9 0.0
28/12:00pm 30.5 25.1 -4.5 10 15.6 ESE 15 22 8 12 1017.6 1016.7 0.0

Other formats

Comma delimited format used in spreadsheet applications
http://www.bom.gov.au/fwo/IDQ60801/IDQ60801.94335.axf

JavaScript Object Notation format (JSON) in row-major order
http://www.bom.gov.au/fwo/IDQ60801/IDQ60801.94335.json

Data quality

Most of these data are generated automatically and are frequently updated. Quality checks on data are not normally performed. It is possible for incorrect values to appear. Refer to information at About Latest Weather Observations and please check the disclaimer before using these data.